Observation data for Ralls on 08/07/2020      Previous  Date  Next       Current Mesonet Observations  Soil Data  Daily Summary Page  Observations in Plain Language
KRLS 070500Z 20007KT 26/13 A2999 RMK A01 T02580130  RH  047%=      5-min Rain = 0
KRLS 070505Z 20007KT 26/13 A2999 RMK A01 T02570128  RH  047%=      5-min Rain = 0
KRLS 070510Z 20006KT 26/13 A2999 RMK A01 T02550127  RH  047%=      5-min Rain = 0
KRLS 070515Z 19006KT 25/13 A2999 RMK A01 T02530127  RH  047%=      5-min Rain = 0
KRLS 070520Z 19006KT 25/13 A2999 RMK A01 T02520128  RH  048%=      5-min Rain = 0
KRLS 070525Z 19006KT 25/13 A30 RMK A01 T02500128  RH  048%=      5-min Rain = 0
KRLS 070530Z 19005KT 25/13 A30 RMK A01 T02460128  RH  050%=      5-min Rain = 0
KRLS 070535Z 18006KT 24/13 A30 RMK A01 T02440128  RH  050%=      5-min Rain = 0
KRLS 070540Z 18006KT 24/13 A30 RMK A01 T02440127  RH  050%=      5-min Rain = 0
KRLS 070545Z 18006KT 24/13 A30 RMK A01 T02400128  RH  052%=      5-min Rain = 0
KRLS 070550Z 16007KT 24/13 A30 RMK A01 T02430132  RH  052%=      5-min Rain = 0
KRLS 070555Z 16006KT 25/13 A30 RMK A01 T02480133  RH  051%=      5-min Rain = 0
KRLS 070600Z 17006KT 25/13 A30 RMK A01 T02490132  RH  050%=      5-min Rain = 0
KRLS 070605Z 17007KT 25/13 A30 RMK A01 T02460132  RH  051%=      5-min Rain = 0
KRLS 070610Z 16007KT 25/13 A30 RMK A01 T02460131  RH  051%=      5-min Rain = 0
KRLS 070615Z 16006KT 25/13 A30 RMK A01 T02480131  RH  050%=      5-min Rain = 0
KRLS 070620Z 17007KT 25/13 A30 RMK A01 T02480130  RH  050%=      5-min Rain = 0
KRLS 070625Z 16007KT 25/13 A30 RMK A01 T02500130  RH  049%=      5-min Rain = 0
KRLS 070630Z 16007KT 25/13 A30 RMK A01 T02520129  RH  049%=      5-min Rain = 0
KRLS 070635Z 16007KT 25/13 A30 RMK A01 T02510129  RH  049%=      5-min Rain = 0
KRLS 070640Z 16007KT 25/13 A30 RMK A01 T02520129  RH  048%=      5-min Rain = 0
KRLS 070645Z 16007KT 25/13 A3001 RMK A01 T02530128  RH  048%=      5-min Rain = 0
KRLS 070650Z 17007KT 25/13 A3001 RMK A01 T02530128  RH  048%=      5-min Rain = 0
KRLS 070655Z 17007KT 25/13 A3001 RMK A01 T02530128  RH  048%=      5-min Rain = 0
KRLS 070700Z 17008KT 25/13 A3001 RMK A01 T02540129  RH  048%=      5-min Rain = 0
KRLS 070705Z 17008KT 26/13 A3001 RMK A01 T02560128  RH  047%=      5-min Rain = 0
KRLS 070710Z 18008KT 26/13 A3001 RMK A01 T02570128  RH  047%=      5-min Rain = 0
KRLS 070715Z 18008KT 26/13 A3001 RMK A01 T02580128  RH  046%=      5-min Rain = 0
KRLS 070720Z 18008KT 26/13 A3001 RMK A01 T02600127  RH  046%=      5-min Rain = 0
KRLS 070725Z 18009KT 26/13 A3001 RMK A01 T02620127  RH  045%=      5-min Rain = 0
KRLS 070730Z 18009KT 26/13 A3001 RMK A01 T02630127  RH  044%=      5-min Rain = 0
KRLS 070735Z 18008KT 26/13 A3001 RMK A01 T02630127  RH  045%=      5-min Rain = 0
KRLS 070740Z 19009KT 26/13 A3001 RMK A01 T02620128  RH  045%=      5-min Rain = 0
KRLS 070745Z 19009KT 26/13 A3001 RMK A01 T02620128  RH  045%=      5-min Rain = 0
KRLS 070750Z 19010KT 26/13 A3001 RMK A01 T02620128  RH  045%=      5-min Rain = 0
KRLS 070755Z 19010KT 26/13 A3001 RMK A01 T02630127  RH  045%=      5-min Rain = 0
KRLS 070800Z 20011KT 26/13 A3001 RMK A01 T02640127  RH  045%=      5-min Rain = 0
KRLS 070805Z 20011KT 26/13 A3001 RMK A01 T02630128  RH  045%=      5-min Rain = 0
KRLS 070810Z 20010KT 26/13 A3001 RMK A01 T02620129  RH  045%=      5-min Rain = 0
KRLS 070815Z 20011KT 26/13 A3001 RMK A01 T02620129  RH  046%=      5-min Rain = 0
KRLS 070820Z 19010KT 26/13 A3001 RMK A01 T02610130  RH  046%=      5-min Rain = 0
KRLS 070825Z 19010KT 26/13 A3001 RMK A01 T02610130  RH  046%=      5-min Rain = 0
KRLS 070830Z 19010KT 26/13 A3002 RMK A01 T02610130  RH  046%=      5-min Rain = 0
KRLS 070835Z 20009KT 26/13 A3002 RMK A01 T02600131  RH  046%=      5-min Rain = 0
KRLS 070840Z 20009KT 26/13 A3002 RMK A01 T02590131  RH  047%=      5-min Rain = 0
KRLS 070845Z 21010KT 26/13 A3002 RMK A01 T02580130  RH  047%=      5-min Rain = 0
KRLS 070850Z 21010KT 26/13 A3002 RMK A01 T02590130  RH  047%=      5-min Rain = 0
KRLS 070855Z 21010KT 26/13 A3002 RMK A01 T02570131  RH  047%=      5-min Rain = 0
KRLS 070900Z 21011KT 26/13 A3002 RMK A01 T02570131  RH  048%=      5-min Rain = 0
KRLS 070905Z 20011KT 26/13 A3002 RMK A01 T02570132  RH  048%=      5-min Rain = 0
KRLS 070910Z 21011KT 26/13 A3002 RMK A01 T02580132  RH  048%=      5-min Rain = 0
KRLS 070915Z 20012KT 26/13 A3002 RMK A01 T02580132  RH  048%=      5-min Rain = 0
KRLS 070920Z 20013KT 26/13 A3002 RMK A01 T02600132  RH  047%=      5-min Rain = 0
KRLS 070925Z 20013KT 26/13 A3002 RMK A01 T02610133  RH  047%=      5-min Rain = 0
KRLS 070930Z 20013KT 26/13 A3002 RMK A01 T02620133  RH  047%=      5-min Rain = 0
KRLS 070935Z 20014KT 26/13 A3001 RMK A01 T02620134  RH  047%=      5-min Rain = 0
KRLS 070940Z 20014KT 26/14 A3001 RMK A01 T02610135  RH  048%=      5-min Rain = 0
KRLS 070945Z 20014KT 26/14 A3001 RMK A01 T02610135  RH  048%=      5-min Rain = 0
KRLS 070950Z 20015KT 26/14 A3001 RMK A01 T02610136  RH  048%=      5-min Rain = 0
KRLS 070955Z 20013KT 26/14 A3001 RMK A01 T02600136  RH  048%=      5-min Rain = 0
KRLS 071000Z 20014KT 26/14 A3001 RMK A01 T02590137  RH  049%=      5-min Rain = 0
KRLS 071005Z 20012KT 26/14 A3001 RMK A01 T02580137  RH  049%=      5-min Rain = 0
KRLS 071010Z 20013KT 26/14 A3001 RMK A01 T02590137  RH  049%=      5-min Rain = 0
KRLS 071015Z 20013KT 26/14 A3001 RMK A01 T02580138  RH  049%=      5-min Rain = 0
KRLS 071020Z 20013KT 26/14 A3001 RMK A01 T02580138  RH  049%=      5-min Rain = 0
KRLS 071025Z 20012KT 26/14 A3001 RMK A01 T02580138  RH  049%=      5-min Rain = 0
KRLS 071030Z 20011G17KT 26/14 A3002 RMK A01 T02580138  RH  050%=      5-min Rain = 0
KRLS 071035Z 20011KT 26/14 A3002 RMK A01 T02580138  RH  049%=      5-min Rain = 0
KRLS 071040Z 20011KT 26/14 A3002 RMK A01 T02580138  RH  049%=      5-min Rain = 0
KRLS 071045Z 20011KT 26/14 A3002 RMK A01 T02570138  RH  050%=      5-min Rain = 0
KRLS 071050Z 19011KT 26/14 A3002 RMK A01 T02570138  RH  050%=      5-min Rain = 0
KRLS 071055Z 19010KT 26/14 A3002 RMK A01 T02550138  RH  050%=      5-min Rain = 0
KRLS 071100Z 19011KT 26/14 A3002 RMK A01 T02550139  RH  051%=      5-min Rain = 0
KRLS 071105Z 19010KT 25/14 A3002 RMK A01 T02540139  RH  051%=      5-min Rain = 0
KRLS 071110Z 19010KT 25/14 A3002 RMK A01 T02530139  RH  051%=      5-min Rain = 0
KRLS 071115Z 19010KT 25/14 A3002 RMK A01 T02520139  RH  052%=      5-min Rain = 0
KRLS 071120Z 19010KT 25/14 A3002 RMK A01 T02510140  RH  052%=      5-min Rain = 0
KRLS 071125Z 20010KT 25/14 A3002 RMK A01 T02520139  RH  052%=      5-min Rain = 0
KRLS 071130Z 19010KT 25/14 A3002 RMK A01 T02520139  RH  052%=      5-min Rain = 0
KRLS 071135Z 19008KT 25/14 A3002 RMK A01 T02500139  RH  052%=      5-min Rain = 0
KRLS 071140Z 18007KT 25/14 A3003 RMK A01 T02480140  RH  053%=      5-min Rain = 0
KRLS 071145Z 18008KT 25/14 A3003 RMK A01 T02470141  RH  054%=      5-min Rain = 0
KRLS 071150Z 18006KT 25/14 A3003 RMK A01 T02450141  RH  055%=      5-min Rain = 0
KRLS 071155Z 17005KT 24/14 A3003 RMK A01 T02440142  RH  055%=      5-min Rain = 0
KRLS 071200Z 18004KT 24/14 A3004 RMK A01 T02430141  RH  055%=      5-min Rain = 0
KRLS 071205Z 18005KT 24/14 A3004 RMK A01 T02400142  RH  056%=      5-min Rain = 0
KRLS 071210Z 18006KT 24/14 A3004 RMK A01 T02400142  RH  057%=      5-min Rain = 0
KRLS 071215Z 18007KT 24/14 A3004 RMK A01 T02400143  RH  057%=      5-min Rain = 0
KRLS 071220Z 18007KT 24/14 A3004 RMK A01 T02410143  RH  057%=      5-min Rain = 0
KRLS 071225Z 18007KT 24/14 A3004 RMK A01 T02420143  RH  056%=      5-min Rain = 0
KRLS 071230Z 18007KT 24/14 A3004 RMK A01 T02440143  RH  056%=      5-min Rain = 0
KRLS 071235Z 19008KT 25/14 A3004 RMK A01 T02450144  RH  055%=      5-min Rain = 0
KRLS 071240Z 19008KT 25/14 A3004 RMK A01 T02480143  RH  055%=      5-min Rain = 0
KRLS 071245Z 19009G14KT 25/14 A3004 RMK A01 T02480144  RH  054%=      5-min Rain = 0
KRLS 071250Z 19010KT 25/14 A3004 RMK A01 T02490144  RH  054%=      5-min Rain = 0
KRLS 071255Z 19010KT 25/14 A3004 RMK A01 T02490144  RH  055%=      5-min Rain = 0
KRLS 071300Z 19008KT 25/14 A3004 RMK A01 T02490144  RH  054%=      5-min Rain = 0
KRLS 071305Z 19009KT 25/14 A3005 RMK A01 T02500144  RH  054%=      5-min Rain = 0
KRLS 071310Z 19009KT 25/15 A3005 RMK A01 T02480145  RH  055%=      5-min Rain = 0
KRLS 071315Z 19009KT 25/15 A3005 RMK A01 T02470145  RH  055%=      5-min Rain = 0
KRLS 071320Z 19009KT 25/15 A3005 RMK A01 T02520145  RH  054%=      5-min Rain = 0
KRLS 071325Z 19010KT 26/15 A3005 RMK A01 T02550145  RH  053%=      5-min Rain = 0
KRLS 071330Z 19010KT 25/15 A3005 RMK A01 T02540146  RH  053%=      5-min Rain = 0
KRLS 071335Z 19011KT 26/15 A3006 RMK A01 T02560146  RH  053%=      5-min Rain = 0
KRLS 071340Z 19011G16KT 26/15 A3006 RMK A01 T02590146  RH  052%=      5-min Rain = 0
KRLS 071345Z 20014KT 26/15 A3006 RMK A01 T02610146  RH  051%=      5-min Rain = 0
KRLS 071350Z 20013KT 26/15 A3006 RMK A01 T02610145  RH  051%=      5-min Rain = 0
KRLS 071355Z 19011KT 26/15 A3006 RMK A01 T02640147  RH  051%=      5-min Rain = 0
KRLS 071400Z 19011G16KT 26/15 A3006 RMK A01 T02640147  RH  051%=      5-min Rain = 0
KRLS 071405Z 19012KT 26/15 A3006 RMK A01 T02640147  RH  051%=      5-min Rain = 0
KRLS 071410Z 20013G18KT 27/15 A3007 RMK A01 T02670148  RH  050%=      5-min Rain = 0
KRLS 071415Z 20014G19KT 27/15 A3007 RMK A01 T02690148  RH  050%=      5-min Rain = 0
KRLS 071420Z 20016G21KT 27/15 A3007 RMK A01 T02720148  RH  049%=      5-min Rain = 0
KRLS 071425Z 19017G23KT 27/15 A3007 RMK A01 T02710146  RH  049%=      5-min Rain = 0
KRLS 071430Z 19017G23KT 27/15 A3007 RMK A01 T02720147  RH  048%=      5-min Rain = 0
KRLS 071435Z 20019G25KT 27/15 A3007 RMK A01 T02740147  RH  048%=      5-min Rain = 0
KRLS 071440Z 20019G24KT 27/15 A3007 RMK A01 T02720146  RH  048%=      5-min Rain = 0
KRLS 071445Z 20019G24KT 28/15 A3007 RMK A01 T02750147  RH  047%=      5-min Rain = 0
KRLS 071450Z 20019G26KT 28/15 A3007 RMK A01 T02750146  RH  047%=      5-min Rain = 0
KRLS 071455Z 20018G24KT 28/15 A3007 RMK A01 T02770147  RH  047%=      5-min Rain = 0
KRLS 071500Z 20018G24KT 28/15 A3007 RMK A01 T02790149  RH  047%=      5-min Rain = 0
KRLS 071505Z 19018G24KT 28/15 A3007 RMK A01 T02780150  RH  048%=      5-min Rain = 0
KRLS 071510Z 20019G24KT 28/15 A3007 RMK A01 T02780149  RH  047%=      5-min Rain = 0
KRLS 071515Z 21020KT 28/15 A3007 RMK A01 T02770149  RH  048%=      5-min Rain = 0
KRLS 071520Z 20017G22KT 28/15 A3007 RMK A01 T02780150  RH  047%=      5-min Rain = 0
KRLS 071525Z 20017G22KT 28/15 A3007 RMK A01 T02790150  RH  048%=      5-min Rain = 0
KRLS 071530Z 20017KT 28/15 A3007 RMK A01 T02810150  RH  047%=      5-min Rain = 0
KRLS 071535Z 19015G22KT 28/15 A3007 RMK A01 T02830150  RH  046%=      5-min Rain = 0
KRLS 071540Z 20018G23KT 28/15 A3007 RMK A01 T02810147  RH  046%=      5-min Rain = 0
KRLS 071545Z 20017G22KT 28/15 A3007 RMK A01 T02800150  RH  047%=      5-min Rain = 0
KRLS 071550Z 19015G22KT 28/15 A3007 RMK A01 T02840149  RH  046%=      5-min Rain = 0
KRLS 071555Z 20018G23KT 28/15 A3008 RMK A01 T02810147  RH  046%=      5-min Rain = 0
KRLS 071600Z 20017KT 28/15 A3008 RMK A01 T02830149  RH  046%=      5-min Rain = 0
KRLS 071605Z 19014G20KT 28/15 A3008 RMK A01 T02840148  RH  046%=      5-min Rain = 0
KRLS 071610Z 19013G19KT 28/15 A3008 RMK A01 T02840151  RH  047%=      5-min Rain = 0
KRLS 071615Z 20016G21KT 29/15 A3008 RMK A01 T02890149  RH  044%=      5-min Rain = 0
KRLS 071620Z 20014G21KT 29/15 A3008 RMK A01 T02890149  RH  045%=      5-min Rain = 0
KRLS 071625Z 20017KT 29/15 A3008 RMK A01 T02910147  RH  043%=      5-min Rain = 0
KRLS 071630Z 20014G20KT 30/15 A3008 RMK A01 T02960149  RH  043%=      5-min Rain = 0
KRLS 071635Z 20016KT 30/15 A3008 RMK A01 T02960149  RH  043%=      5-min Rain = 0
KRLS 071640Z 19014KT 30/15 A3008 RMK A01 T02980151  RH  043%=      5-min Rain = 0
KRLS 071645Z 19014KT 30/15 A3008 RMK A01 T02980151  RH  043%=      5-min Rain = 0
KRLS 071650Z 20013G20KT 30/15 A3008 RMK A01 T02980152  RH  043%=      5-min Rain = 0
KRLS 071655Z 19012G17KT 30/15 A3008 RMK A01 T03040152  RH  042%=      5-min Rain = 0
KRLS 071700Z 18011G17KT 31/15 A3008 RMK A01 T03090154  RH  041%=      5-min Rain = 0
KRLS 071705Z 18013G18KT 31/15 A3008 RMK A01 T03060153  RH  041%=      5-min Rain = 0
KRLS 071710Z 19012G19KT 31/15 A3008 RMK A01 T03090152  RH  040%=      5-min Rain = 0
KRLS 071715Z 19013G20KT 31/15 A3008 RMK A01 T03100147  RH  039%=      5-min Rain = 0
KRLS 071720Z 20015G23KT 32/14 A3008 RMK A01 T03170144  RH  037%=      5-min Rain = 0
KRLS 071725Z 20015G23KT 31/14 A3008 RMK A01 T03140142  RH  037%=      5-min Rain = 0
KRLS 071730Z 18013G18KT 31/14 A3008 RMK A01 T03140141  RH  036%=      5-min Rain = 0
KRLS 071735Z 19013G18KT 32/14 A3007 RMK A01 T03220142  RH  035%=      5-min Rain = 0
KRLS 071740Z 18013G20KT 32/14 A3007 RMK A01 T03180141  RH  036%=      5-min Rain = 0
KRLS 071745Z 19014G19KT 32/14 A3007 RMK A01 T03240138  RH  034%=      5-min Rain = 0
KRLS 071750Z 20016G22KT 32/14 A3007 RMK A01 T03210135  RH  034%=      5-min Rain = 0
KRLS 071755Z 19014G20KT 33/14 A3007 RMK A01 T03250139  RH  034%=      5-min Rain = 0
KRLS 071800Z 18015G23KT 32/13 A3007 RMK A01 T03230134  RH  033%=      5-min Rain = 0
KRLS 071805Z 19013G19KT 33/14 A3006 RMK A01 T03270138  RH  033%=      5-min Rain = 0
KRLS 071810Z 19015G20KT 33/14 A3006 RMK A01 T03290138  RH  033%=      5-min Rain = 0
KRLS 071815Z 19015G21KT 33/14 A3006 RMK A01 T03280135  RH  032%=      5-min Rain = 0
KRLS 071820Z 20014G21KT 33/13 A3006 RMK A01 T03320130  RH  031%=      5-min Rain = 0
KRLS 071825Z 20013G20KT 33/14 A3006 RMK A01 T03310139  RH  033%=      5-min Rain = 0
KRLS 071830Z 18013G20KT 34/14 A3006 RMK A01 T03370137  RH  031%=      5-min Rain = 0
KRLS 071835Z 20014G22KT 34/14 A3006 RMK A01 T03360135  RH  031%=      5-min Rain = 0
KRLS 071840Z 19015G21KT 34/13 A3006 RMK A01 T03380130  RH  030%=      5-min Rain = 0
KRLS 071845Z 18015G22KT 34/14 A3006 RMK A01 T03400136  RH  030%=      5-min Rain = 0
KRLS 071850Z 18013G20KT 34/13 A3006 RMK A01 T03410132  RH  030%=      5-min Rain = 0
KRLS 071855Z 19013G20KT 34/13 A3005 RMK A01 T03410133  RH  030%=      5-min Rain = 0
KRLS 071900Z 19015G23KT 34/13 A3005 RMK A01 T03430125  RH  028%=      5-min Rain = 0
KRLS 071905Z 20016G21KT 34/13 A3005 RMK A01 T03420125  RH  028%=      5-min Rain = 0
KRLS 071910Z 19016G22KT 35/12 A3005 RMK A01 T03490122  RH  026%=      5-min Rain = 0
KRLS 071915Z 19013G21KT 35/12 A3005 RMK A01 T03500122  RH  026%=      5-min Rain = 0
KRLS 071920Z 19014G20KT 35/12 A3005 RMK A01 T03500115  RH  025%=      5-min Rain = 0
KRLS 071925Z 20014G21KT 35/12 A3005 RMK A01 T03460116  RH  026%=      5-min Rain = 0
KRLS 071930Z 19017G22KT 35/11 A3004 RMK A01 T03470109  RH  024%=      5-min Rain = 0
KRLS 071935Z 18014KT 35/12 A3004 RMK A01 T03480117  RH  026%=      5-min Rain = 0
KRLS 071940Z 19013G20KT 35/12 A3004 RMK A01 T03510116  RH  025%=      5-min Rain = 0
KRLS 071945Z 19015G21KT 36/11 A3004 RMK A01 T03570108  RH  023%=      5-min Rain = 0
KRLS 071950Z 20014G21KT 36/11 A3004 RMK A01 T03550112  RH  024%=      5-min Rain = 0
KRLS 071955Z 18014G21KT 35/11 A3004 RMK A01 T03540112  RH  024%=      5-min Rain = 0
KRLS 072000Z 19014G22KT 36/11 A3004 RMK A01 T03600108  RH  023%=      5-min Rain = 0
KRLS 072005Z 19013G19KT 36/10 A3004 RMK A01 T03590098  RH  021%=      5-min Rain = 0
KRLS 072010Z 20016G23KT 36/11 A3004 RMK A01 T03570108  RH  023%=      5-min Rain = 0
KRLS 072015Z 18014KT 36/11 A3003 RMK A01 T03600111  RH  023%=      5-min Rain = 0
KRLS 072020Z 18015G26KT 36/11 A3003 RMK A01 T03610111  RH  023%=      5-min Rain = 0
KRLS 072025Z 19014G21KT 36/11 A3003 RMK A01 T03580109  RH  023%=      5-min Rain = 0
KRLS 072030Z 20014G22KT 36/10 A3003 RMK A01 T03560103  RH  022%=      5-min Rain = 0
KRLS 072035Z 20015G21KT 36/10 A3003 RMK A01 T03600101  RH  021%=      5-min Rain = 0
KRLS 072040Z 18012G19KT 36/11 A3003 RMK A01 T03640109  RH  022%=      5-min Rain = 0
KRLS 072045Z 19014G21KT 36/10 A3003 RMK A01 T03630103  RH  022%=      5-min Rain = 0
KRLS 072050Z 20015G20KT 36/10 A3003 RMK A01 T03610099  RH  021%=      5-min Rain = 0
KRLS 072055Z 19013G21KT 36/10 A3002 RMK A01 T03630101  RH  021%=      5-min Rain = 0
KRLS 072100Z 19013G19KT 36/10 A3002 RMK A01 T03600104  RH  022%=      5-min Rain = 0
KRLS 072105Z 19014G20KT 36/10 A3002 RMK A01 T03640103  RH  021%=      5-min Rain = 0
KRLS 072110Z 20014KT 36/10 A3002 RMK A01 T03640102  RH  021%=      5-min Rain = 0
KRLS 072115Z 20015G21KT 36/10 A3002 RMK A01 T03630103  RH  021%=      5-min Rain = 0
KRLS 072120Z 20014G23KT 36/11 A3002 RMK A01 T03630108  RH  022%=      5-min Rain = 0
KRLS 072125Z 20015KT 36/11 A3002 RMK A01 T03630107  RH  022%=      5-min Rain = 0
KRLS 072130Z 21014G19KT 36/11 A3002 RMK A01 T03630106  RH  022%=      5-min Rain = 0
KRLS 072135Z 20015G20KT 37/11 A3002 RMK A01 T03660108  RH  022%=      5-min Rain = 0
KRLS 072140Z 20015G20KT 36/11 A3001 RMK A01 T03630107  RH  022%=      5-min Rain = 0
KRLS 072145Z 18012G18KT 37/11 A3001 RMK A01 T03670111  RH  022%=      5-min Rain = 0
KRLS 072150Z 21014KT 37/11 A3001 RMK A01 T03670106  RH  021%=      5-min Rain = 0
KRLS 072155Z 20016KT 37/10 A3001 RMK A01 T03650104  RH  021%=      5-min Rain = 0
KRLS 072200Z 19011G16KT 37/11 A3001 RMK A01 T03660106  RH  021%=      5-min Rain = 0
KRLS 072205Z 19012G22KT 37/11 A3001 RMK A01 T03690105  RH  021%=      5-min Rain = 0
KRLS 072210Z 20012G18KT 36/10 A3001 RMK A01 T03630102  RH  021%=      5-min Rain = 0
KRLS 072215Z 18014G19KT 37/11 A30 RMK A01 T03690108  RH  022%=      5-min Rain = 0
KRLS 072220Z 20014G21KT 37/10 A30 RMK A01 T03680103  RH  021%=      5-min Rain = 0
KRLS 072225Z 20013KT 37/10 A30 RMK A01 T03670102  RH  021%=      5-min Rain = 0
KRLS 072230Z 19013G21KT 37/10 A30 RMK A01 T03700102  RH  020%=      5-min Rain = 0
KRLS 072235Z 19012G18KT 37/10 A30 RMK A01 T03650100  RH  021%=      5-min Rain = 0
KRLS 072240Z 19011G18KT 37/10 A30 RMK A01 T03680104  RH  021%=      5-min Rain = 0
KRLS 072245Z 19012G20KT 37/10 A30 RMK A01 T03670103  RH  021%=      5-min Rain = 0
KRLS 072250Z 20016G21KT 36/10 A30 RMK A01 T03620100  RH  021%=      5-min Rain = 0
KRLS 072255Z 19013G18KT 36/10 A30 RMK A01 T03610101  RH  021%=      5-min Rain = 0
KRLS 072300Z 18012G17KT 36/10 A30 RMK A01 T03610101  RH  021%=      5-min Rain = 0
KRLS 072305Z 17012G18KT 36/10 A30 RMK A01 T03600100  RH  021%=      5-min Rain = 0
KRLS 072310Z 18013G18KT 36/10 A30 RMK A01 T03630099  RH  021%=      5-min Rain = 0
KRLS 072315Z 18012KT 36/10 A30 RMK A01 T03640097  RH  020%=      5-min Rain = 0
KRLS 072320Z 19012G18KT 37/10 A30 RMK A01 T03650098  RH  020%=      5-min Rain = 0
KRLS 072325Z 17012G19KT 37/10 A30 RMK A01 T03670102  RH  021%=      5-min Rain = 0
KRLS 072330Z 18013G18KT 36/10 A30 RMK A01 T03630097  RH  021%=      5-min Rain = 0
KRLS 072335Z 18013G20KT 36/10 A2999 RMK A01 T03590100  RH  021%=      5-min Rain = 0
KRLS 072340Z 17012G17KT 35/10 A30 RMK A01 T03540100  RH  022%=      5-min Rain = 0
KRLS 072345Z 17012KT 35/10 A30 RMK A01 T03510101  RH  022%=      5-min Rain = 0
KRLS 072350Z 17012G17KT 35/10 A30 RMK A01 T03500100  RH  023%=      5-min Rain = 0
KRLS 072355Z 17012G19KT 35/10 A30 RMK A01 T03470099  RH  023%=      5-min Rain = 0
KRLS 080000Z 17010KT 34/10 A30 RMK A01 T03440100  RH  023%=      5-min Rain = 0
KRLS 080005Z 17012G17KT 34/10 A30 RMK A01 T03440098  RH  023%=      5-min Rain = 0
KRLS 080010Z 17009KT 34/10 A30 RMK A01 T03420100  RH  024%=      5-min Rain = 0
KRLS 080015Z 18009KT 34/10 A30 RMK A01 T03410100  RH  024%=      5-min Rain = 0
KRLS 080020Z 18009KT 34/10 A3001 RMK A01 T03400100  RH  024%=      5-min Rain = 0
KRLS 080025Z 17009KT 34/10 A3001 RMK A01 T03390100  RH  024%=      5-min Rain = 0
KRLS 080030Z 18008KT 34/10 A3001 RMK A01 T03370100  RH  024%=      5-min Rain = 0
KRLS 080035Z 18007KT 34/10 A3001 RMK A01 T03360101  RH  024%=      5-min Rain = 0
KRLS 080040Z 18008KT 33/10 A3001 RMK A01 T03340103  RH  025%=      5-min Rain = 0
KRLS 080045Z 18007KT 33/11 A3001 RMK A01 T03320105  RH  026%=      5-min Rain = 0
KRLS 080050Z 18007KT 33/10 A3001 RMK A01 T03310104  RH  026%=      5-min Rain = 0
KRLS 080055Z 17007KT 33/11 A3002 RMK A01 T03290106  RH  026%=      5-min Rain = 0
KRLS 080100Z 17007G12KT 33/11 A3002 RMK A01 T03290106  RH  026%=      5-min Rain = 0
KRLS 080105Z 16008G13KT 33/11 A3002 RMK A01 T03300106  RH  026%=      5-min Rain = 0
KRLS 080110Z 16008KT 33/11 A3002 RMK A01 T03300107  RH  026%=      5-min Rain = 0
KRLS 080115Z 17009KT 33/11 A3002 RMK A01 T03280110  RH  027%=      5-min Rain = 0
KRLS 080120Z 17008KT 33/11 A3002 RMK A01 T03270111  RH  028%=      5-min Rain = 0
KRLS 080125Z 17008KT 33/11 A3002 RMK A01 T03260111  RH  028%=      5-min Rain = 0
KRLS 080130Z 17008KT 32/11 A3002 RMK A01 T03240111  RH  028%=      5-min Rain = 0
KRLS 080135Z 17008KT 32/11 A3003 RMK A01 T03230111  RH  028%=      5-min Rain = 0
KRLS 080140Z 17007KT 32/11 A3003 RMK A01 T03190110  RH  029%=      5-min Rain = 0
KRLS 080145Z 17007KT 32/11 A3003 RMK A01 T03180110  RH  029%=      5-min Rain = 0
KRLS 080150Z 16007KT 32/11 A3003 RMK A01 T03170108  RH  029%=      5-min Rain = 0
KRLS 080155Z 16007KT 32/11 A3003 RMK A01 T03170107  RH  028%=      5-min Rain = 0
KRLS 080200Z 16007KT 32/11 A3003 RMK A01 T03170106  RH  028%=      5-min Rain = 0
KRLS 080205Z 15007KT 32/11 A3003 RMK A01 T03170105  RH  028%=      5-min Rain = 0
KRLS 080210Z 15007KT 32/11 A3003 RMK A01 T03160105  RH  028%=      5-min Rain = 0
KRLS 080215Z 15007KT 32/11 A3003 RMK A01 T03150105  RH  028%=      5-min Rain = 0
KRLS 080220Z 15007KT 31/11 A3003 RMK A01 T03130106  RH  029%=      5-min Rain = 0
KRLS 080225Z 15006KT 31/11 A3003 RMK A01 T03100108  RH  030%=      5-min Rain = 0
KRLS 080230Z 15006KT 31/11 A3004 RMK A01 T03070109  RH  030%=      5-min Rain = 0
KRLS 080235Z 15007KT 31/11 A3004 RMK A01 T03060109  RH  031%=      5-min Rain = 0
KRLS 080240Z 16006KT 31/11 A3004 RMK A01 T03050110  RH  031%=      5-min Rain = 0
KRLS 080245Z 16006KT 30/11 A3004 RMK A01 T03030110  RH  032%=      5-min Rain = 0
KRLS 080250Z 16006KT 30/11 A3005 RMK A01 T03010111  RH  032%=      5-min Rain = 0
KRLS 080255Z 16007KT 30/11 A3005 RMK A01 T03000111  RH  032%=      5-min Rain = 0
KRLS 080300Z 16007KT 30/11 A3005 RMK A01 T03000112  RH  032%=      5-min Rain = 0
KRLS 080305Z 16007KT 30/11 A3006 RMK A01 T02990112  RH  033%=      5-min Rain = 0
KRLS 080310Z 16007KT 30/11 A3006 RMK A01 T02970113  RH  033%=      5-min Rain = 0
KRLS 080315Z 16007KT 30/11 A3006 RMK A01 T02970114  RH  033%=      5-min Rain = 0
KRLS 080320Z 16007KT 30/11 A3006 RMK A01 T02980114  RH  033%=      5-min Rain = 0
KRLS 080325Z 16006KT 30/11 A3007 RMK A01 T02990114  RH  033%=      5-min Rain = 0
KRLS 080330Z 16006KT 30/12 A3007 RMK A01 T02980115  RH  033%=      5-min Rain = 0
KRLS 080335Z 16006KT 30/12 A3007 RMK A01 T02970116  RH  034%=      5-min Rain = 0
KRLS 080340Z 17007KT 30/12 A3007 RMK A01 T02960116  RH  034%=      5-min Rain = 0
KRLS 080345Z 18007KT 30/12 A3008 RMK A01 T02950117  RH  035%=      5-min Rain = 0
KRLS 080350Z 19006KT 29/12 A3009 RMK A01 T02930117  RH  035%=      5-min Rain = 0
KRLS 080355Z 21008G13KT 29/12 A301 RMK A01 T02920118  RH  035%=      5-min Rain = 0
KRLS 080400Z 24012G17KT 29/12 A301 RMK A01 T02930121  RH  036%=      5-min Rain = 0
KRLS 080405Z 27013KT 29/12 A3011 RMK A01 T02900121  RH  037%=      5-min Rain = 0
KRLS 080410Z 27012G17KT 29/12 A3011 RMK A01 T02870123  RH  038%=      5-min Rain = 0
KRLS 080415Z 27012G18KT 28/13 A3011 RMK A01 T02800125  RH  040%=      5-min Rain = 0
KRLS 080420Z 27011KT 28/13 A3011 RMK A01 T02770125  RH  041%=      5-min Rain = 0
KRLS 080425Z 27009G14KT 28/13 A3011 RMK A01 T02750125  RH  041%=      5-min Rain = 0
KRLS 080430Z 28009KT 27/13 A3011 RMK A01 T02740125  RH  041%=      5-min Rain = 0
KRLS 080435Z 28010G15KT 27/12 A3011 RMK A01 T02740123  RH  041%=      5-min Rain = 0
KRLS 080440Z 28011KT 27/12 A3011 RMK A01 T02740121  RH  040%=      5-min Rain = 0
KRLS 080445Z 27010KT 27/12 A3011 RMK A01 T02730121  RH  040%=      5-min Rain = 0
KRLS 080450Z 27010KT 27/12 A3011 RMK A01 T02730121  RH  040%=      5-min Rain = 0
KRLS 080455Z 27014G22KT 27/12 A3011 RMK A01 T02720121  RH  041%=      5-min Rain = 0

Page generated in 0.0097 seconds.